logo
Search for airport 
image banner adimage banner adimage banner ad
image banner ad

VT57 - Malletts Head

Located in Colchester, United States

ICAO - VT57, IATA -

Data provided by Airmate  

General information

Coordinates: N44°33'38" W73°14'25"
Elevation is 95 feet MSL.
Magnetic variation is -15° East
View others Airports in Vermont

Operational data

Special qualification required
Current time UTC:
Current local time:
METAR: KBTV 251554Z 29007KT 260V330 10SM FEW100 BKN250 19/06 A2990 RMK AO2 SLP126 T01890056
TAF: KBTV 251132Z 2512/2612 07003KT P6SM FEW250 FM251500 29006KT P6SM FEW240 FM252000 VRB04KT P6SM BKN180 FM260700 00000KT P6SM VCSH BKN027
View NOTAMs / SUP AIP / TFR affecting this airport [VIEW]
Communications frequencies: [VIEW]

Runways:

RWY identifierQFULength (ft)Width (ft)SurfaceLDA (ft)
12W30002000WATER
30W30002000WATER

Airport contact information

Address: Colchester United States

Satellite view of VT57